Time;durP1;ratioP1;P1;durP2;ratioP2;P2;SDS_P1;SDS_P2;PMS_P1;PMS_P2;Temp;Humidity;BMP_temperature;BMP_pressure;BME280_temperature;BME280_humidity;BME280_pressure;Samples;Min_cycle;Max_cycle;Signal;HPM_P1;HPM_P2
2022/01/28 00:01:44;;;;;;;17.00;13.30;;;;;;;1.79;100.00;98599.58;105237;1271;62135;-79
2022/01/28 00:04:16;;;;;;;16.10;12.30;;;;;;;1.79;100.00;98590.13;105211;1271;76603;-79
2022/01/28 00:06:43;;;;;;;15.60;11.60;;;;;;;1.79;100.00;98595.73;105181;1269;69267;-78
2022/01/28 00:09:10;;;;;;;16.20;12.00;;;;;;;1.80;100.00;98591.66;105211;1271;74307;-80
2022/01/28 00:11:37;;;;;;;18.50;12.70;;;;;;;1.81;100.00;98586.90;105317;1271;62112;-77
2022/01/28 00:14:20;;;;;;;17.50;12.10;;;;;;;1.81;100.00;98588.29;105193;1271;62075;-78
2022/01/28 00:38:56;;;;;;;13.60;11.10;;;;;;;1.85;100.00;98559.05;105181;1271;62293;-78
2022/01/28 00:41:22;;;;;;;11.70;8.20;;;;;;;1.87;100.00;98556.70;105195;1271;62146;-79
2022/01/28 00:43:49;;;;;;;14.50;10.10;;;;;;;1.88;100.00;98557.19;105200;1271;76414;-79
2022/01/28 00:46:16;;;;;;;12.80;10.10;;;;;;;1.90;100.00;98558.35;104968;1271;69752;-76
2022/01/28 00:48:42;;;;;;;12.50;10.60;;;;;;;1.92;100.00;98559.13;105181;1271;73450;-79
2022/01/28 00:51:09;;;;;;;11.70;8.70;;;;;;;1.94;100.00;98560.61;105186;1271;62017;-79
2022/01/28 00:53:35;;;;;;;12.20;9.00;;;;;;;1.96;100.00;98561.08;105181;1271;62457;-79
2022/01/28 00:56:02;;;;;;;12.80;9.50;;;;;;;1.98;100.00;98560.13;105232;1271;77060;-80
2022/01/28 00:58:29;;;;;;;11.00;9.80;;;;;;;1.99;100.00;98558.86;105116;1271;69214;-77
2022/01/28 01:00:55;;;;;;;12.40;9.70;;;;;;;2.01;100.00;98558.96;105015;1271;73448;-79
2022/01/28 01:03:22;;;;;;;12.30;9.70;;;;;;;2.03;100.00;98563.98;105178;1271;62117;-78
2022/01/28 01:05:48;;;;;;;10.20;8.90;;;;;;;2.04;100.00;98560.23;105168;1271;62154;-77
2022/01/28 01:08:15;;;;;;;12.10;9.20;;;;;;;2.05;100.00;98562.15;105187;1271;76039;-78
2022/01/28 01:10:42;;;;;;;10.80;9.50;;;;;;;2.03;100.00;98567.10;105087;1271;196918;-79
2022/01/28 01:13:09;;;;;;;12.80;9.50;;;;;;;2.01;100.00;98565.98;105214;1271;73479;-78
2022/01/28 01:15:41;;;;;;;12.30;10.40;;;;;;;1.98;100.00;98567.50;105141;1271;62135;-76
2022/01/28 01:18:19;;;;;;;9.70;7.70;;;;;;;1.95;100.00;98575.48;105207;1271;61989;-80
2022/01/28 01:28:20;;;;;;;10.40;8.70;;;;;;;1.90;100.00;98567.63;105187;1271;62163;-78
2022/01/28 01:30:47;;;;;;;10.70;8.70;;;;;;;1.88;100.00;98567.71;105120;1271;61967;-78
2022/01/28 01:33:16;;;;;;;10.20;8.30;;;;;;;1.83;100.00;98572.27;105205;1271;74463;-77
2022/01/28 01:35:43;;;;;;;10.80;9.00;;;;;;;1.80;100.00;98570.64;104895;1271;70664;-78
2022/01/28 01:38:11;;;;;;;9.80;7.80;;;;;;;1.77;100.00;98562.17;105164;1271;73453;-78
2022/01/28 01:40:46;;;;;;;11.20;8.00;;;;;;;1.75;100.00;98559.80;105191;1270;62189;-79
2022/01/28 01:53:45;;;;;;;9.60;7.70;;;;;;;1.69;100.00;98538.15;105111;1271;62181;-80
2022/01/28 01:56:12;;;;;;;8.80;7.70;;;;;;;1.65;100.00;98537.91;105142;1271;62177;-79
2022/01/28 01:58:41;;;;;;;7.70;7.00;;;;;;;1.65;100.00;98537.60;105063;1271;77334;-79
2022/01/28 02:01:07;;;;;;;7.70;6.80;;;;;;;1.65;100.00;98533.00;105169;1271;68956;-79
2022/01/28 02:03:35;;;;;;;8.60;7.70;;;;;;;1.67;100.00;98531.36;105108;1271;74447;-78
2022/01/28 02:06:03;;;;;;;9.20;6.60;;;;;;;1.67;100.00;98532.94;105069;1271;62073;-78
2022/01/28 02:08:32;;;;;;;9.90;7.00;;;;;;;1.69;100.00;98524.12;104750;1272;62214;-78
2022/01/28 02:10:59;;;;;;;9.60;6.60;;;;;;;1.72;100.00;98519.95;105155;1271;77065;-78
2022/01/28 02:13:33;;;;;;;8.00;6.50;;;;;;;1.76;100.00;98523.50;105228;1271;70202;-78
2022/01/28 02:16:01;;;;;;;7.10;6.10;;;;;;;1.81;100.00;98527.70;105071;1271;74245;-78
2022/01/28 02:18:27;;;;;;;5.80;5.20;;;;;;;1.85;100.00;98519.48;105054;1271;62118;-79
2022/01/28 02:21:01;;;;;;;7.10;5.70;;;;;;;1.88;100.00;98517.09;105060;1271;62051;-77
2022/01/28 02:23:28;;;;;;;7.30;5.90;;;;;;;1.89;100.00;98520.55;105092;1271;77170;-79
2022/01/28 02:25:57;;;;;;;7.40;6.60;;;;;;;1.88;100.00;98530.94;104923;1271;69446;-78
2022/01/28 02:28:26;;;;;;;8.60;6.50;;;;;;;1.88;100.00;98527.75;105109;1271;73309;-79
2022/01/28 02:30:53;;;;;;;6.00;5.20;;;;;;;1.90;100.00;98536.27;104869;1271;62194;-78
2022/01/28 02:33:23;;;;;;;6.40;5.70;;;;;;;1.92;100.00;98539.01;105033;1272;62253;-78
2022/01/28 02:35:51;;;;;;;6.00;5.40;;;;;;;1.91;100.00;98537.25;105090;1271;77218;-80
2022/01/28 02:38:21;;;;;;;7.00;6.00;;;;;;;1.92;100.00;98536.72;105262;1271;70156;-76
2022/01/28 02:40:59;;;;;;;7.30;5.80;;;;;;;1.93;100.00;98538.42;105290;1271;73266;-78
2022/01/28 02:44:06;;;;;;;5.50;5.00;;;;;;;1.93;100.00;98537.90;105116;1271;62117;-78
2022/01/28 02:46:16;;;;;;;6.00;5.30;;;;;;;1.95;100.00;98541.84;105092;1271;61954;-79
2022/01/28 02:49:04;;;;;;;6.60;5.80;;;;;;;1.98;100.00;98545.06;105159;1270;77241;-78
2022/01/28 02:51:32;;;;;;;6.30;5.50;;;;;;;2.00;100.00;98551.48;105228;1271;70461;-78
2022/01/28 02:54:01;;;;;;;5.80;5.20;;;;;;;2.00;100.00;98543.40;105556;1271;73284;-79
2022/01/28 02:58:57;;;;;;;6.30;5.60;;;;;;;2.02;100.00;98551.73;105473;1271;62207;-79
2022/01/28 03:01:25;;;;;;;6.70;5.00;;;;;;;2.01;100.00;98558.26;105412;1271;75507;-77
2022/01/28 03:03:55;;;;;;;13.90;5.10;;;;;;;2.01;100.00;98549.52;107312;1270;69257;-76
2022/01/28 03:06:22;;;;;;;6.30;5.20;;;;;;;2.01;100.00;98551.44;108439;1270;72408;-76
2022/01/28 03:09:12;;;;;;;5.60;5.10;;;;;;;2.02;100.00;98549.48;108242;1270;61936;-78
2022/01/28 03:14:20;;;;;;;6.70;6.00;;;;;;;2.03;100.00;98550.48;108686;1270;76182;-78
2022/01/28 03:17:16;;;;;;;6.60;4.90;;;;;;;2.03;100.00;98550.67;106955;1271;69170;-77
2022/01/28 03:19:54;;;;;;;5.80;4.50;;;;;;;2.02;100.00;98555.41;107500;1271;73248;-79
2022/01/28 03:22:23;;;;;;;;;;;;;;;2.03;100.00;98564.84;105253;1271;62200;-79
2022/01/28 03:24:52;;;;;;;5.90;5.30;;;;;;;2.02;100.00;98557.34;105293;1271;62061;-78
2022/01/28 03:27:44;;;;;;;5.70;5.20;;;;;;;2.02;100.00;98555.45;105320;1271;76845;-79
2022/01/28 03:30:06;;;;;;;6.20;5.00;;;;;;;2.00;100.00;98561.13;105280;1271;70261;-79
2022/01/28 03:32:33;;;;;;;4.30;3.90;;;;;;;1.97;100.00;98558.60;105368;1271;74218;-80
2022/01/28 03:34:59;;;;;;;6.20;5.10;;;;;;;1.97;100.00;98553.51;105193;1271;62502;-78
2022/01/28 03:37:26;;;;;;;6.10;5.50;;;;;;;1.95;100.00;98550.08;105240;1269;62189;-80
2022/01/28 03:39:53;;;;;;;6.90;6.00;;;;;;;1.93;100.00;98552.08;105195;1271;74280;-78
2022/01/28 03:42:19;;;;;;;5.80;5.10;;;;;;;1.92;100.00;98548.45;105206;1271;69451;-78
2022/01/28 03:44:46;;;;;;;5.10;4.70;;;;;;;1.91;100.00;98544.45;105245;1271;73349;-79
2022/01/28 03:47:13;;;;;;;5.40;4.90;;;;;;;1.91;100.00;98548.13;105188;1271;62107;-77
2022/01/28 03:49:39;;;;;;;5.10;4.60;;;;;;;1.91;100.00;98548.66;105200;1271;62066;-79
2022/01/28 03:52:07;;;;;;;5.00;4.50;;;;;;;1.91;100.00;98543.42;105217;1271;76395;-77
2022/01/28 03:54:33;;;;;;;6.10;4.80;;;;;;;1.90;100.00;98540.47;105195;1271;70284;-77
2022/01/28 03:57:00;;;;;;;6.10;4.30;;;;;;;1.90;100.00;98542.40;105218;1271;74467;-80
2022/01/28 03:59:26;;;;;;;6.60;4.90;;;;;;;1.91;100.00;98538.15;105194;1271;62070;-77
2022/01/28 04:01:54;;;;;;;6.70;4.60;;;;;;;1.91;100.00;98542.86;105247;1271;62149;-78
2022/01/28 04:05:31;;;;;;;6.00;4.50;;;;;;;1.91;100.00;98535.86;105189;1271;76159;-79
2022/01/28 04:12:51;;;;;;;5.10;4.40;;;;;;;1.91;100.00;98541.67;105252;1271;62131;-78
2022/01/28 04:15:34;;;;;;;5.80;4.10;;;;;;;1.91;100.00;98538.14;105243;1271;62191;-79
2022/01/28 04:18:01;;;;;;;5.50;4.80;;;;;;;1.93;100.00;98545.61;105250;1269;76103;-79
2022/01/28 04:20:30;;;;;;;5.10;4.00;;;;;;;1.94;100.00;98549.07;105241;1271;69181;-78
2022/01/28 04:22:58;;;;;;;4.10;3.70;;;;;;;1.95;100.00;98553.25;105246;1271;72617;-79
2022/01/28 04:25:24;;;;;;;4.60;4.10;;;;;;;1.96;100.00;98552.30;104991;1271;62121;-76
2022/01/28 04:27:51;;;;;;;5.60;4.00;;;;;;;1.97;100.00;98550.36;105214;1271;62054;-81
2022/01/28 04:30:18;;;;;;;5.00;4.40;;;;;;;1.97;100.00;98543.69;104982;1271;77120;-81
2022/01/28 04:32:47;;;;;;;6.20;4.10;;;;;;;1.98;100.00;98541.38;105204;1269;69421;-78
2022/01/28 04:35:13;;;;;;;5.10;3.60;;;;;;;1.99;100.00;98543.98;105236;1271;73524;-80
2022/01/28 04:40:14;;;;;;;3.40;3.00;;;;;;;1.99;100.00;98538.20;105286;1271;62390;-77
2022/01/28 04:43:01;;;;;;;5.60;3.60;;;;;;;1.99;100.00;98544.16;105236;1271;75621;-76
2022/01/28 04:45:52;;;;;;;4.00;3.10;;;;;;;1.99;100.00;98539.77;105241;1271;69412;-81
2022/01/28 04:53:50;;;;;;;4.30;2.90;;;;;;;1.99;100.00;98539.08;105222;1271;62142;-78
2022/01/28 04:58:56;;;;;;;5.00;3.80;;;;;;;1.95;100.00;98546.57;105213;1271;62062;-79
2022/01/28 05:27:43;;;;;;;8.00;4.20;;;;;;;1.53;100.00;98590.17;105180;1270;73452;-79
2022/01/28 05:30:11;;;;;;;6.80;4.60;;;;;;;1.49;100.00;98593.67;105168;1271;62113;-79
2022/01/28 05:32:38;;;;;;;7.50;4.50;;;;;;;1.45;100.00;98598.56;105199;1271;62139;-80
2022/01/28 05:35:05;;;;;;;8.10;4.90;;;;;;;1.40;100.00;98603.98;105184;1271;76045;-77
2022/01/28 05:37:32;;;;;;;6.80;5.00;;;;;;;1.35;100.00;98596.66;105057;1271;70322;-77
2022/01/28 05:39:58;;;;;;;8.90;5.40;;;;;;;1.29;100.00;98597.20;105157;1271;73244;-79
2022/01/28 05:42:25;;;;;;;10.30;4.10;;;;;;;1.25;100.00;98598.75;105176;1271;61986;-77
2022/01/28 05:44:52;;;;;;;10.30;5.10;;;;;;;1.21;100.00;98597.86;105216;1271;62104;-78
2022/01/28 05:47:19;;;;;;;9.30;6.00;;;;;;;1.16;100.00;98601.69;105205;1271;76102;-77
2022/01/28 05:49:46;;;;;;;9.20;5.40;;;;;;;1.13;100.00;98600.92;105023;1271;69156;-77
2022/01/28 05:52:13;;;;;;;8.40;5.20;;;;;;;1.12;100.00;98598.17;105000;1271;73443;-77
2022/01/28 05:54:39;;;;;;;7.00;5.10;;;;;;;1.11;100.00;98606.77;105203;1270;62088;-77
2022/01/28 05:57:06;;;;;;;9.10;4.70;;;;;;;1.10;100.00;98608.36;105178;1270;62074;-78
2022/01/28 05:59:33;;;;;;;7.30;4.00;;;;;;;1.10;100.00;98612.91;105245;1271;76445;-80
2022/01/28 06:01:59;;;;;;;9.30;4.50;;;;;;;1.10;100.00;98621.29;105200;1271;69184;-77
2022/01/28 06:04:26;;;;;;;8.80;4.00;;;;;;;1.11;100.00;98625.14;105163;1271;73891;-77
2022/01/28 06:06:52;;;;;;;7.40;4.30;;;;;;;1.11;100.00;98625.64;104953;1271;62044;-76
2022/01/28 06:09:19;;;;;;;8.10;4.20;;;;;;;1.15;100.00;98611.19;105208;1271;62084;-77
2022/01/28 06:11:47;;;;;;;8.30;4.00;;;;;;;1.16;100.00;98616.56;105176;1271;76674;-77
2022/01/28 06:14:13;;;;;;;6.10;4.00;;;;;;;1.16;100.00;98624.60;105192;1271;69467;-77
2022/01/28 06:16:41;;;;;;;6.50;4.10;;;;;;;1.18;100.00;98646.25;104948;1271;74387;-79
2022/01/28 06:19:07;;;;;;;7.50;5.50;;;;;;;1.21;100.00;98643.69;104977;1271;62106;-76
2022/01/28 06:21:34;;;;;;;9.40;5.60;;;;;;;1.23;100.00;98645.73;105188;1270;62053;-77
2022/01/28 06:24:00;;;;;;;11.50;5.80;;;;;;;1.23;100.00;98645.55;105250;1271;76868;-79
2022/01/28 06:26:27;;;;;;;8.30;4.30;;;;;;;1.23;100.00;98640.81;105222;1271;69793;-78
2022/01/28 06:28:54;;;;;;;8.20;4.00;;;;;;;1.23;100.00;98640.48;105207;1271;73193;-77
2022/01/28 06:31:20;;;;;;;8.60;4.40;;;;;;;1.21;100.00;98641.25;105109;1271;62153;-76
2022/01/28 06:33:48;;;;;;;8.70;4.20;;;;;;;1.18;100.00;98651.86;105015;1271;62019;-78
2022/01/28 06:36:15;;;;;;;9.80;5.10;;;;;;;1.14;100.00;98654.94;105203;1271;77269;-79
2022/01/28 06:38:42;;;;;;;7.00;5.20;;;;;;;1.13;100.00;98654.30;105237;1271;68345;-80
2022/01/28 06:41:09;;;;;;;8.10;4.60;;;;;;;1.10;100.00;98656.11;105227;1269;73310;-79
2022/01/28 06:43:36;;;;;;;7.30;4.40;;;;;;;1.12;100.00;98659.91;105288;1271;62039;-77
2022/01/28 06:46:02;;;;;;;9.50;5.70;;;;;;;1.15;100.00;98659.46;104543;1271;1002977;-78
2022/01/28 06:48:29;;;;;;;8.50;5.70;;;;;;;1.19;100.00;98663.34;105131;1271;76220;-79
2022/01/28 06:50:56;;;;;;;13.50;8.00;;;;;;;1.24;100.00;98662.83;105179;1271;70288;-79
2022/01/28 06:53:22;;;;;;;12.40;7.10;;;;;;;1.28;100.00;98665.31;105229;1271;73317;-78
2022/01/28 06:55:49;;;;;;;11.30;6.80;;;;;;;1.33;100.00;98672.17;105019;1273;62156;-79
2022/01/28 06:58:16;;;;;;;10.70;5.80;;;;;;;1.38;100.00;98672.15;105181;1271;62127;-78
2022/01/28 07:00:43;;;;;;;6.20;3.70;;;;;;;1.45;100.00;98675.58;105233;1271;74537;-78
2022/01/28 07:03:12;;;;;;;8.40;3.70;;;;;;;1.56;100.00;98673.11;105210;1271;68628;-78
2022/01/28 07:05:39;;;;;;;6.10;3.30;;;;;;;1.64;100.00;98673.67;105312;1271;73337;-77
2022/01/28 07:08:06;;;;;;;7.40;3.30;;;;;;;1.70;100.00;98678.34;104953;1271;62201;-76
2022/01/28 07:10:34;;;;;;;6.50;3.60;;;;;;;1.76;100.00;98682.34;105196;1271;62114;-78
2022/01/28 07:13:01;;;;;;;7.60;3.10;;;;;;;1.81;100.00;98683.92;105195;1271;76932;-78
2022/01/28 07:15:29;;;;;;;9.00;3.60;;;;;;;1.85;100.00;98691.48;105222;1271;69171;-77
2022/01/28 07:18:02;;;;;;;8.30;3.40;;;;;;;1.89;100.00;98690.80;105209;1271;74071;-78
2022/01/28 07:20:34;;;;;;;8.00;2.80;;;;;;;1.95;100.00;98691.65;105288;1271;62123;-81
2022/01/28 07:23:02;;;;;;;6.20;2.00;;;;;;;2.00;100.00;98697.21;105218;1271;62184;-79
2022/01/28 07:25:29;;;;;;;5.70;2.00;;;;;;;2.05;100.00;98701.61;104985;1272;77443;-79
2022/01/28 07:27:55;;;;;;;6.70;1.90;;;;;;;2.07;100.00;98701.70;105206;1271;69659;-78
2022/01/28 07:30:22;;;;;;;6.60;2.30;;;;;;;2.10;100.00;98699.49;105258;1271;73392;-78
2022/01/28 07:32:50;;;;;;;4.60;2.40;;;;;;;2.14;100.00;98702.68;105261;1271;62063;-79
2022/01/28 07:35:17;;;;;;;4.70;2.00;;;;;;;2.18;100.00;98706.18;105210;1271;62527;-78
2022/01/28 07:37:44;;;;;;;4.60;2.10;;;;;;;2.23;100.00;98705.48;105235;1271;77117;-79
2022/01/28 07:40:11;;;;;;;5.80;2.20;;;;;;;2.27;100.00;98710.79;105039;1272;70810;-81
2022/01/28 07:42:38;;;;;;;4.60;2.30;;;;;;;2.29;100.00;98714.56;105200;1271;73272;-79
2022/01/28 07:45:07;;;;;;;5.40;2.20;;;;;;;2.32;100.00;98719.38;105223;1271;62085;-76
2022/01/28 07:47:36;;;;;;;6.20;2.10;;;;;;;2.34;100.00;98718.23;105247;1271;62073;-77
2022/01/28 07:50:06;;;;;;;6.60;2.50;;;;;;;2.36;100.00;98718.50;105233;1270;76197;-76
2022/01/28 07:52:34;;;;;;;8.30;2.60;;;;;;;2.39;100.00;98711.03;105229;1274;70052;-78
2022/01/28 07:55:00;;;;;;;8.00;3.20;;;;;;;2.43;100.00;98717.89;104920;1272;74733;-77
2022/01/28 07:57:27;;;;;;;4.70;2.00;;;;;;;2.47;100.00;98714.73;105187;1271;62072;-79
2022/01/28 07:59:54;;;;;;;5.10;2.20;;;;;;;2.55;100.00;98719.69;105231;1271;62208;-78
2022/01/28 08:02:20;;;;;;;5.60;2.30;;;;;;;2.62;100.00;98722.42;104973;1271;75678;-79
2022/01/28 08:04:47;;;;;;;6.40;2.00;;;;;;;2.64;100.00;98713.54;105204;1271;70374;-78
2022/01/28 08:07:14;;;;;;;7.00;1.90;;;;;;;2.70;100.00;98726.66;104944;1272;73490;-79
2022/01/28 08:09:41;;;;;;;4.10;1.70;;;;;;;2.76;100.00;98726.42;105237;1271;62182;-77
2022/01/28 08:12:08;;;;;;;6.60;2.20;;;;;;;2.83;100.00;98726.12;104936;1271;62046;-76
2022/01/28 08:14:35;;;;;;;5.60;2.00;;;;;;;2.89;100.00;98731.86;105353;1271;77140;-77
2022/01/28 08:17:01;;;;;;;8.40;2.20;;;;;;;2.97;100.00;98734.36;105193;1270;69278;-79
2022/01/28 08:19:28;;;;;;;9.60;3.20;;;;;;;3.05;100.00;98729.30;105237;1271;74209;-78
2022/01/28 08:21:55;;;;;;;7.70;2.90;;;;;;;3.08;100.00;98729.34;105241;1271;61974;-78
2022/01/28 08:24:21;;;;;;;8.10;3.30;;;;;;;3.07;100.00;98738.51;105224;1270;62079;-79
2022/01/28 08:26:48;;;;;;;9.20;3.70;;;;;;;3.04;100.00;98735.98;105278;1271;76249;-77
2022/01/28 08:29:16;;;;;;;10.00;3.70;;;;;;;3.02;100.00;98742.38;105274;1271;69138;-80
2022/01/28 08:31:42;;;;;;;10.00;3.60;;;;;;;3.00;100.00;98743.88;105277;1271;73100;-77
2022/01/28 08:34:09;;;;;;;7.50;3.00;;;;;;;2.99;100.00;98746.58;105185;1271;62532;-78
2022/01/28 08:36:36;;;;;;;7.20;2.30;;;;;;;2.96;100.00;98748.95;105234;1271;62137;-78
2022/01/28 08:39:05;;;;;;;6.50;2.20;;;;;;;2.92;100.00;98752.11;105271;1271;77317;-79
2022/01/28 08:41:33;;;;;;;5.10;2.50;;;;;;;2.88;100.00;98752.98;105384;1271;69336;-77
2022/01/28 08:43:59;;;;;;;7.60;2.80;;;;;;;2.81;100.00;98754.45;105353;1271;72337;-77
2022/01/28 08:46:26;;;;;;;8.00;2.70;;;;;;;2.77;100.00;98760.93;105456;1271;62174;-77
2022/01/28 08:48:53;;;;;;;10.30;2.60;;;;;;;2.74;100.00;98750.18;105561;1271;61316;-80
2022/01/28 08:51:19;;;;;;;6.90;2.10;;;;;;;2.71;100.00;98769.75;105598;1271;76926;-77
2022/01/28 08:53:46;;;;;;;4.10;1.80;;;;;;;2.67;100.00;98770.45;105820;1271;67264;-77
2022/01/28 08:56:13;;;;;;;7.20;2.30;;;;;;;2.64;100.00;98776.52;105810;1271;74374;-78
2022/01/28 08:58:40;;;;;;;4.60;2.00;;;;;;;2.60;100.00;98781.92;106006;1271;62129;-78
2022/01/28 09:01:08;;;;;;;5.60;2.40;;;;;;;2.58;100.00;98788.16;105879;1271;62192;-78
2022/01/28 09:03:35;;;;;;;5.90;2.30;;;;;;;2.53;100.00;98796.77;106103;1271;76843;-78
2022/01/28 09:06:02;;;;;;;6.30;2.40;;;;;;;2.47;100.00;98791.91;106411;1271;70278;-75
2022/01/28 09:08:28;;;;;;;9.20;3.00;;;;;;;2.44;100.00;98798.16;108682;1271;73731;-76
2022/01/28 09:11:08;;;;;;;7.90;3.10;;;;;;;2.40;100.00;98805.85;108332;1271;59880;-78
2022/01/28 09:13:38;;;;;;;;;;;;;;;2.36;100.00;98806.15;108252;1271;61045;-78
2022/01/28 09:16:05;;;;;;;6.90;3.00;;;;;;;2.32;100.00;98801.75;105503;1271;75962;-80
2022/01/28 09:18:32;;;;;;;10.10;3.80;;;;;;;2.28;100.00;98811.34;105103;1271;69019;-78
2022/01/28 09:20:59;;;;;;;8.10;3.30;;;;;;;2.26;100.00;98814.39;105543;1271;74259;-77
2022/01/28 09:23:25;;;;;;;13.90;4.20;;;;;;;2.26;100.00;98818.25;105202;1271;62042;-78
2022/01/28 09:25:52;;;;;;;8.70;4.00;;;;;;;2.27;100.00;98823.51;104948;1271;62151;-81
2022/01/28 09:28:19;;;;;;;8.10;3.60;;;;;;;2.28;100.00;98824.31;105200;1271;76210;-79
2022/01/28 09:30:46;;;;;;;9.40;4.20;;;;;;;2.28;100.00;98828.71;105220;1271;70844;-79
2022/01/28 09:33:12;;;;;;;7.20;3.60;;;;;;;2.29;100.00;98826.42;105181;1271;74242;-79
2022/01/28 09:35:41;;;;;;;9.10;3.20;;;;;;;2.30;100.00;98830.58;104918;1271;62184;-79
2022/01/28 09:38:08;;;;;;;7.80;3.30;;;;;;;2.31;100.00;98835.27;105210;1271;61941;-77
2022/01/28 09:40:35;;;;;;;7.50;3.00;;;;;;;2.32;100.00;98836.12;105349;1271;75941;-78
2022/01/28 09:43:05;;;;;;;7.20;3.10;;;;;;;2.33;100.00;98839.93;105208;1271;68723;-77
2022/01/28 09:45:32;;;;;;;14.60;3.80;;;;;;;2.35;100.00;98837.73;104694;1271;73193;-78
2022/01/28 09:47:59;;;;;;;6.30;2.90;;;;;;;2.37;100.00;98842.39;105178;1271;62083;-79
2022/01/28 09:50:28;;;;;;;6.40;2.90;;;;;;;2.39;100.00;98840.05;105235;1271;62120;-78
2022/01/28 09:52:56;;;;;;;6.50;2.50;;;;;;;2.39;100.00;98844.79;105208;1271;77169;-77
2022/01/28 09:55:25;;;;;;;8.30;3.20;;;;;;;2.39;100.00;98845.52;105391;1271;69880;-78
2022/01/28 09:57:54;;;;;;;6.80;2.70;;;;;;;2.37;100.00;98854.32;105372;1271;73422;-78
2022/01/28 10:00:25;;;;;;;7.20;2.90;;;;;;;2.34;100.00;98852.88;105189;1271;61970;-78
2022/01/28 10:03:03;;;;;;;10.30;4.10;;;;;;;2.33;100.00;98852.71;105246;1271;62139;-79
2022/01/28 10:05:35;;;;;;;9.70;4.80;;;;;;;2.31;100.00;98847.73;105225;1271;76253;-79
2022/01/28 10:08:10;;;;;;;8.80;4.60;;;;;;;2.26;100.00;98857.54;105214;1271;70305;-80
2022/01/28 10:10:54;;;;;;;14.00;5.90;;;;;;;2.24;100.00;98854.98;105225;1271;74248;-79
2022/01/28 10:13:29;;;;;;;11.90;6.40;;;;;;;2.20;100.00;98861.77;105208;1271;62182;-78
2022/01/28 10:16:03;;;;;;;11.00;5.60;;;;;;;2.14;100.00;98869.16;104999;1271;62184;-80
2022/01/28 10:18:45;;;;;;;9.90;5.10;;;;;;;2.10;100.00;98869.64;105216;1271;76290;-82
2022/01/28 10:21:23;;;;;;;15.80;6.90;;;;;;;2.08;100.00;98869.20;105244;1270;67734;-76
2022/01/28 10:24:04;;;;;;;13.80;7.20;;;;;;;2.05;100.00;98874.20;105200;1271;72588;-78
2022/01/28 10:26:46;;;;;;;10.90;5.90;;;;;;;2.02;100.00;98878.70;105240;1271;62121;-76
2022/01/28 10:29:14;;;;;;;14.30;6.90;;;;;;;1.98;100.00;98882.52;105204;1271;62174;-76
2022/01/28 10:31:44;;;;;;;14.90;7.00;;;;;;;1.97;100.00;98884.98;105350;1271;76114;-79
2022/01/28 10:34:19;;;;;;;16.80;7.90;;;;;;;1.97;100.00;98882.02;105268;1271;70372;-78
2022/01/28 10:36:48;;;;;;;14.50;6.80;;;;;;;1.96;100.00;98880.31;105219;1271;74513;-80
2022/01/28 10:39:18;;;;;;;13.90;7.60;;;;;;;1.95;100.00;98885.41;105264;1271;62167;-77
2022/01/28 10:41:55;;;;;;;13.60;7.30;;;;;;;1.93;100.00;98890.40;105061;1274;62419;-78
2022/01/28 10:44:24;;;;;;;11.50;6.50;;;;;;;1.90;100.00;98895.90;105314;1271;76262;-79
2022/01/28 10:46:55;;;;;;;17.00;7.30;;;;;;;1.87;100.00;98899.53;105338;1271;69364;-78
2022/01/28 10:49:34;;;;;;;18.10;8.20;;;;;;;1.84;100.00;98902.23;105264;1271;73170;-78
2022/01/28 10:52:13;;;;;;;12.20;7.00;;;;;;;1.81;100.00;98908.82;105322;1271;62073;-78
2022/01/28 10:54:42;;;;;;;14.60;7.60;;;;;;;1.80;100.00;98910.10;104876;1271;62154;-78
2022/01/28 10:57:09;;;;;;;12.40;7.10;;;;;;;1.80;100.00;98914.81;104921;1271;75564;-78
2022/01/28 10:59:43;;;;;;;13.20;8.70;;;;;;;1.78;100.00;98915.92;105197;1271;70050;-75
2022/01/28 11:02:10;;;;;;;17.00;9.30;;;;;;;1.76;100.00;98918.09;105204;1271;73386;-77
2022/01/28 11:04:39;;;;;;;14.80;8.20;;;;;;;1.78;100.00;98915.23;104945;1274;62184;-78
2022/01/28 11:07:06;;;;;;;15.60;8.90;;;;;;;1.80;100.00;98921.84;105386;1271;62171;-77
2022/01/28 11:09:32;;;;;;;11.40;7.70;;;;;;;1.79;100.00;98920.46;104919;1271;76077;-77
2022/01/28 11:12:00;;;;;;;14.10;8.70;;;;;;;1.77;100.00;98925.94;105226;1271;69172;-79
2022/01/28 11:14:27;;;;;;;13.40;8.90;;;;;;;1.74;100.00;98928.66;105217;1271;72825;-78
2022/01/28 11:16:54;;;;;;;15.20;8.50;;;;;;;1.69;100.00;98930.57;105019;1271;62212;-78
2022/01/28 11:19:22;;;;;;;16.20;8.20;;;;;;;1.64;100.00;98939.48;104945;1272;62257;-77
2022/01/28 11:22:07;;;;;;;13.30;8.30;;;;;;;1.62;100.00;98933.61;105238;1271;76531;-78
2022/01/28 11:24:34;;;;;;;15.40;9.30;;;;;;;1.59;100.00;98937.54;105198;1271;69211;-79
2022/01/28 11:27:10;;;;;;;16.90;9.00;;;;;;;1.58;100.00;98942.85;105203;1271;73307;-79
2022/01/28 11:29:37;;;;;;;15.30;9.30;;;;;;;1.53;100.00;98948.58;105237;1271;62218;-78
2022/01/28 11:32:17;;;;;;;17.10;9.10;;;;;;;1.48;100.00;98948.03;105019;1274;62091;-78
2022/01/28 11:35:10;;;;;;;15.90;7.30;;;;;;;1.44;100.00;98954.13;105042;1274;76177;-80
2022/01/28 11:37:37;;;;;;;11.40;7.30;;;;;;;1.43;100.00;98956.79;105273;1271;69282;-77
2022/01/28 11:40:07;;;;;;;11.40;6.80;;;;;;;1.43;100.00;98953.61;105214;1271;74451;-77
2022/01/28 11:42:34;;;;;;;10.50;6.70;;;;;;;1.45;100.00;98952.16;105238;1271;62075;-78
2022/01/28 11:45:04;;;;;;;9.50;5.80;;;;;;;1.47;100.00;98955.95;104949;1271;62117;-77
2022/01/28 11:47:41;;;;;;;12.80;6.20;;;;;;;1.48;100.00;98954.34;105243;1271;76239;-79
2022/01/28 11:50:15;;;;;;;10.00;6.00;;;;;;;1.50;100.00;98959.53;105281;1271;69223;-78
2022/01/28 11:52:53;;;;;;;9.40;5.90;;;;;;;1.53;100.00;98962.08;105310;1271;73450;-77
2022/01/28 11:55:28;;;;;;;12.00;6.00;;;;;;;1.56;100.00;98962.85;105207;1271;62083;-80
2022/01/28 11:58:01;;;;;;;13.50;6.90;;;;;;;1.61;100.00;98967.97;105261;1271;61970;-78
2022/01/28 12:00:41;;;;;;;16.80;9.40;;;;;;;1.62;100.00;98971.08;105219;1271;76176;-78
2022/01/28 12:03:25;;;;;;;12.70;7.40;;;;;;;1.65;100.00;98974.50;104895;1271;69403;-76
2022/01/28 12:05:56;;;;;;;13.30;7.00;;;;;;;1.66;100.00;98972.89;105212;1271;73788;-78
2022/01/28 12:08:30;;;;;;;13.10;7.10;;;;;;;1.69;100.00;98975.05;105265;1271;62060;-77
2022/01/28 12:10:58;;;;;;;14.40;8.40;;;;;;;1.73;100.00;98973.73;105181;1274;62042;-77
2022/01/28 12:13:47;;;;;;;11.70;8.80;;;;;;;1.76;100.00;98970.13;104888;1272;76043;-78
2022/01/28 12:16:26;;;;;;;15.10;9.40;;;;;;;1.82;100.00;98973.27;105228;1271;69227;-79
2022/01/28 12:18:58;;;;;;;15.50;9.00;;;;;;;1.88;100.00;98975.16;104940;1272;74168;-77
2022/01/28 12:21:31;;;;;;;12.10;8.80;;;;;;;1.94;100.00;98969.34;105188;1271;62004;-78
2022/01/28 12:24:20;;;;;;;11.50;8.60;;;;;;;2.01;100.00;98974.23;105204;1271;62416;-78
2022/01/28 12:27:00;;;;;;;16.20;10.30;;;;;;;2.06;100.00;98975.30;105247;1271;75975;-78
2022/01/28 12:29:32;;;;;;;14.20;10.00;;;;;;;2.07;100.00;98975.60;105229;1271;70682;-80
2022/01/28 12:32:00;;;;;;;12.40;9.80;;;;;;;2.09;100.00;98976.08;105257;1271;73257;-79
2022/01/28 12:34:27;;;;;;;13.80;8.30;;;;;;;2.09;100.00;98979.05;105309;1271;62207;-78
2022/01/28 12:36:59;;;;;;;12.50;7.90;;;;;;;2.07;100.00;98983.13;105178;1271;62095;-78
2022/01/28 12:39:39;;;;;;;10.90;6.90;;;;;;;2.05;100.00;98984.23;105238;1270;77172;-78
2022/01/28 12:42:23;;;;;;;11.50;7.40;;;;;;;2.04;100.00;98985.67;105224;1271;69334;-80
2022/01/28 12:44:54;;;;;;;12.80;7.20;;;;;;;2.05;100.00;98987.58;105191;1271;73284;-79
2022/01/28 12:47:22;;;;;;;11.70;7.10;;;;;;;2.06;100.00;98988.42;105126;1271;62264;-77
2022/01/28 12:50:03;;;;;;;11.80;7.90;;;;;;;2.07;100.00;98989.61;105218;1271;62112;-77
2022/01/28 12:52:31;;;;;;;10.30;7.90;;;;;;;2.06;100.00;98993.69;105217;1271;77151;-76
2022/01/28 12:54:57;;;;;;;13.20;7.70;;;;;;;2.05;100.00;98997.75;105181;1271;69563;-78
2022/01/28 12:57:24;;;;;;;12.10;7.10;;;;;;;2.05;100.00;98999.50;105263;1272;73327;-79
2022/01/28 12:59:51;;;;;;;10.10;5.50;;;;;;;2.04;100.00;99001.83;105278;1271;62144;-79
2022/01/28 13:02:19;;;;;;;9.50;5.60;;;;;;;2.03;100.00;99004.47;105297;1271;62058;-77